Terminal Aerodrome Forecast
Issued by NWS

Home | Current Version | Previous Version | Text Only | Print | Product List | Glossary On
Versions: 1 2 3 4 5 6 7 8 9 10 11 12 13 14 15 16 17 18
000
FTUS46 KSEW 022115 AAA
TAFBLI
TAF AMD
KBLI 022115Z 0221/0318 15023G38KT P6SM -RA OVC021
     FM030100 17011KT P6SM VCSH BKN020
     FM030300 19005KT P6SM SCT020
     FM031000 19005KT P6SM SCT020 OVC050=

USA.gov is the U.S. government's official web portal to all federal, state and local government web resources and services.